sensor_id;sensor_type;location;lat;lon;timestamp;temperature;humidity
20856;DHT22;63058;49.424;8.420;2023-02-13T00:00:09;6.00;94.40
20856;DHT22;63058;49.424;8.420;2023-02-13T00:02:35;6.00;94.20
20856;DHT22;63058;49.424;8.420;2023-02-13T00:05:01;6.10;94.20
20856;DHT22;63058;49.424;8.420;2023-02-13T00:07:26;6.00;94.10
20856;DHT22;63058;49.424;8.420;2023-02-13T00:09:52;6.00;94.10
20856;DHT22;63058;49.424;8.420;2023-02-13T00:12:18;6.00;94.00
20856;DHT22;63058;49.424;8.420;2023-02-13T00:14:43;5.90;93.90
20856;DHT22;63058;49.424;8.420;2023-02-13T00:17:09;5.90;93.90
20856;DHT22;63058;49.424;8.420;2023-02-13T00:19:34;5.80;94.10
20856;DHT22;63058;49.424;8.420;2023-02-13T00:22:00;5.80;94.20
20856;DHT22;63058;49.424;8.420;2023-02-13T00:24:26;5.80;94.20
20856;DHT22;63058;49.424;8.420;2023-02-13T00:26:51;5.80;94.20
20856;DHT22;63058;49.424;8.420;2023-02-13T00:29:17;5.70;94.20
20856;DHT22;63058;49.424;8.420;2023-02-13T00:31:43;5.70;94.30
20856;DHT22;63058;49.424;8.420;2023-02-13T00:34:08;5.70;94.30
20856;DHT22;63058;49.424;8.420;2023-02-13T00:36:34;5.70;94.40
20856;DHT22;63058;49.424;8.420;2023-02-13T00:39:00;5.60;94.50
20856;DHT22;63058;49.424;8.420;2023-02-13T00:41:25;5.60;94.40
20856;DHT22;63058;49.424;8.420;2023-02-13T00:43:51;5.60;94.30
20856;DHT22;63058;49.424;8.420;2023-02-13T00:46:17;5.60;94.30
20856;DHT22;63058;49.424;8.420;2023-02-13T00:48:43;5.60;94.20
20856;DHT22;63058;49.424;8.420;2023-02-13T00:51:09;5.50;94.20
20856;DHT22;63058;49.424;8.420;2023-02-13T00:53:35;5.50;94.40
20856;DHT22;63058;49.424;8.420;2023-02-13T00:56:01;5.50;94.40
20856;DHT22;63058;49.424;8.420;2023-02-13T00:58:27;5.50;94.50
20856;DHT22;63058;49.424;8.420;2023-02-13T01:00:53;5.50;94.50
20856;DHT22;63058;49.424;8.420;2023-02-13T01:03:20;5.40;94.50
20856;DHT22;63058;49.424;8.420;2023-02-13T01:05:47;5.50;94.50
20856;DHT22;63058;49.424;8.420;2023-02-13T01:08:13;5.40;94.60
20856;DHT22;63058;49.424;8.420;2023-02-13T01:10:40;5.40;94.60
20856;DHT22;63058;49.424;8.420;2023-02-13T01:13:07;5.40;94.70
20856;DHT22;63058;49.424;8.420;2023-02-13T01:15:33;5.50;94.60
20856;DHT22;63058;49.424;8.420;2023-02-13T01:17:59;5.40;94.50
20856;DHT22;63058;49.424;8.420;2023-02-13T01:20:26;5.40;94.50
20856;DHT22;63058;49.424;8.420;2023-02-13T01:22:52;5.30;94.60
20856;DHT22;63058;49.424;8.420;2023-02-13T01:25:18;5.30;94.60
20856;DHT22;63058;49.424;8.420;2023-02-13T01:27:44;5.30;94.60
20856;DHT22;63058;49.424;8.420;2023-02-13T01:30:12;5.30;94.60
20856;DHT22;63058;49.424;8.420;2023-02-13T01:32:42;5.30;94.70
20856;DHT22;63058;49.424;8.420;2023-02-13T01:35:09;5.20;94.70
20856;DHT22;63058;49.424;8.420;2023-02-13T01:37:35;5.30;94.90
20856;DHT22;63058;49.424;8.420;2023-02-13T01:40:01;5.30;95.00
20856;DHT22;63058;49.424;8.420;2023-02-13T01:42:29;5.30;95.10
20856;DHT22;63058;49.424;8.420;2023-02-13T01:44:57;5.30;95.10
20856;DHT22;63058;49.424;8.420;2023-02-13T01:47:32;5.40;95.10
20856;DHT22;63058;49.424;8.420;2023-02-13T01:52:30;5.40;94.80
20856;DHT22;63058;49.424;8.420;2023-02-13T01:54:56;5.40;94.90
20856;DHT22;63058;49.424;8.420;2023-02-13T01:57:25;5.50;94.70
20856;DHT22;63058;49.424;8.420;2023-02-13T02:00:00;5.40;94.60
20856;DHT22;63058;49.424;8.420;2023-02-13T02:02:27;5.30;94.70
20856;DHT22;63058;49.424;8.420;2023-02-13T02:04:53;5.40;94.70
20856;DHT22;63058;49.424;8.420;2023-02-13T02:07:23;5.30;94.70
20856;DHT22;63058;49.424;8.420;2023-02-13T02:09:51;5.30;94.60
20856;DHT22;63058;49.424;8.420;2023-02-13T02:12:25;5.30;94.70
20856;DHT22;63058;49.424;8.420;2023-02-13T02:14:53;5.20;94.20
20856;DHT22;63058;49.424;8.420;2023-02-13T02:17:21;5.20;94.10
20856;DHT22;63058;49.424;8.420;2023-02-13T02:22:34;5.00;94.40
20856;DHT22;63058;49.424;8.420;2023-02-13T02:36:25;5.10;94.30
20856;DHT22;63058;49.424;8.420;2023-02-13T02:39:04;5.00;94.30
20856;DHT22;63058;49.424;8.420;2023-02-13T02:41:41;5.00;94.20
20856;DHT22;63058;49.424;8.420;2023-02-13T02:44:30;5.10;94.20
20856;DHT22;63058;49.424;8.420;2023-02-13T02:52:58;5.00;94.40
20856;DHT22;63058;49.424;8.420;2023-02-13T03:01:08;5.00;94.50
20856;DHT22;63058;49.424;8.420;2023-02-13T03:03:56;5.00;94.50
20856;DHT22;63058;49.424;8.420;2023-02-13T03:09:30;5.00;94.50
20856;DHT22;63058;49.424;8.420;2023-02-13T03:12:22;5.00;94.40
20856;DHT22;63058;49.424;8.420;2023-02-13T03:15:06;4.90;94.30
20856;DHT22;63058;49.424;8.420;2023-02-13T03:17:32;4.90;94.30
20856;DHT22;63058;49.424;8.420;2023-02-13T03:26:15;4.90;94.40
20856;DHT22;63058;49.424;8.420;2023-02-13T03:28:52;4.90;94.30
20856;DHT22;63058;49.424;8.420;2023-02-13T03:34:18;4.80;94.20
20856;DHT22;63058;49.424;8.420;2023-02-13T03:37:05;4.70;94.20
20856;DHT22;63058;49.424;8.420;2023-02-13T03:40:03;4.70;94.30
20856;DHT22;63058;49.424;8.420;2023-02-13T03:42:38;4.60;94.50
20856;DHT22;63058;49.424;8.420;2023-02-13T03:45:13;4.70;94.40
20856;DHT22;63058;49.424;8.420;2023-02-13T03:48:00;4.60;94.50
20856;DHT22;63058;49.424;8.420;2023-02-13T03:50:36;4.60;94.50
20856;DHT22;63058;49.424;8.420;2023-02-13T03:53:09;4.70;94.40
20856;DHT22;63058;49.424;8.420;2023-02-13T03:55:39;4.60;94.30
20856;DHT22;63058;49.424;8.420;2023-02-13T03:58:27;4.60;94.30
20856;DHT22;63058;49.424;8.420;2023-02-13T04:01:14;4.60;94.40
20856;DHT22;63058;49.424;8.420;2023-02-13T04:06:36;4.60;94.40
20856;DHT22;63058;49.424;8.420;2023-02-13T04:09:03;4.60;94.30
20856;DHT22;63058;49.424;8.420;2023-02-13T04:11:36;4.60;94.20
20856;DHT22;63058;49.424;8.420;2023-02-13T04:14:33;4.60;94.30
20856;DHT22;63058;49.424;8.420;2023-02-13T04:17:06;4.50;94.20
20856;DHT22;63058;49.424;8.420;2023-02-13T04:19:33;4.50;94.20
20856;DHT22;63058;49.424;8.420;2023-02-13T04:22:00;4.50;94.10
20856;DHT22;63058;49.424;8.420;2023-02-13T04:24:27;4.50;94.20
20856;DHT22;63058;49.424;8.420;2023-02-13T04:26:53;4.40;94.40
20856;DHT22;63058;49.424;8.420;2023-02-13T04:29:24;4.50;94.50
20856;DHT22;63058;49.424;8.420;2023-02-13T04:31:50;4.50;94.50
20856;DHT22;63058;49.424;8.420;2023-02-13T04:34:16;4.50;94.50
20856;DHT22;63058;49.424;8.420;2023-02-13T04:36:42;4.50;94.50
20856;DHT22;63058;49.424;8.420;2023-02-13T04:39:07;4.50;94.50
20856;DHT22;63058;49.424;8.420;2023-02-13T04:41:33;4.50;94.50
20856;DHT22;63058;49.424;8.420;2023-02-13T04:43:59;4.60;94.50
20856;DHT22;63058;49.424;8.420;2023-02-13T04:46:24;4.50;94.40
20856;DHT22;63058;49.424;8.420;2023-02-13T04:48:50;4.60;94.40
20856;DHT22;63058;49.424;8.420;2023-02-13T04:51:15;4.50;94.40
20856;DHT22;63058;49.424;8.420;2023-02-13T04:53:41;4.50;94.40
20856;DHT22;63058;49.424;8.420;2023-02-13T04:56:06;4.50;94.50
20856;DHT22;63058;49.424;8.420;2023-02-13T04:58:32;4.50;94.70
20856;DHT22;63058;49.424;8.420;2023-02-13T05:00:57;4.50;94.70
20856;DHT22;63058;49.424;8.420;2023-02-13T05:03:23;4.50;94.80
20856;DHT22;63058;49.424;8.420;2023-02-13T05:05:49;4.60;94.80
20856;DHT22;63058;49.424;8.420;2023-02-13T05:08:14;4.60;94.70
20856;DHT22;63058;49.424;8.420;2023-02-13T05:10:40;4.60;94.60
20856;DHT22;63058;49.424;8.420;2023-02-13T05:13:05;4.60;94.70
20856;DHT22;63058;49.424;8.420;2023-02-13T05:15:31;4.60;94.70
20856;DHT22;63058;49.424;8.420;2023-02-13T05:17:56;4.60;94.80
20856;DHT22;63058;49.424;8.420;2023-02-13T05:20:22;4.60;94.80
20856;DHT22;63058;49.424;8.420;2023-02-13T05:22:50;4.60;94.70
20856;DHT22;63058;49.424;8.420;2023-02-13T05:25:35;4.60;94.80
20856;DHT22;63058;49.424;8.420;2023-02-13T05:28:01;4.70;94.70
20856;DHT22;63058;49.424;8.420;2023-02-13T05:30:27;4.60;94.60
20856;DHT22;63058;49.424;8.420;2023-02-13T05:32:53;4.70;94.60
20856;DHT22;63058;49.424;8.420;2023-02-13T05:35:22;4.60;94.50
20856;DHT22;63058;49.424;8.420;2023-02-13T05:37:49;4.60;94.50
20856;DHT22;63058;49.424;8.420;2023-02-13T05:40:14;4.60;94.60
20856;DHT22;63058;49.424;8.420;2023-02-13T05:42:41;4.60;94.50
20856;DHT22;63058;49.424;8.420;2023-02-13T05:45:07;4.50;94.50
20856;DHT22;63058;49.424;8.420;2023-02-13T05:47:33;4.50;94.50
20856;DHT22;63058;49.424;8.420;2023-02-13T05:49:58;4.50;94.60
20856;DHT22;63058;49.424;8.420;2023-02-13T05:52:24;4.50;94.70
20856;DHT22;63058;49.424;8.420;2023-02-13T05:54:50;4.50;94.70
20856;DHT22;63058;49.424;8.420;2023-02-13T05:57:15;4.50;94.60
20856;DHT22;63058;49.424;8.420;2023-02-13T05:59:41;4.50;94.60
20856;DHT22;63058;49.424;8.420;2023-02-13T06:02:06;4.50;94.50
20856;DHT22;63058;49.424;8.420;2023-02-13T06:04:32;4.50;94.50
20856;DHT22;63058;49.424;8.420;2023-02-13T06:06:58;4.50;94.50
20856;DHT22;63058;49.424;8.420;2023-02-13T06:09:24;4.40;94.40
20856;DHT22;63058;49.424;8.420;2023-02-13T06:11:49;4.40;94.50
20856;DHT22;63058;49.424;8.420;2023-02-13T06:14:15;4.40;94.60
20856;DHT22;63058;49.424;8.420;2023-02-13T06:16:41;4.50;94.60
20856;DHT22;63058;49.424;8.420;2023-02-13T06:19:07;4.40;94.50
20856;DHT22;63058;49.424;8.420;2023-02-13T06:21:32;4.40;94.50
20856;DHT22;63058;49.424;8.420;2023-02-13T06:24:03;4.40;94.60
20856;DHT22;63058;49.424;8.420;2023-02-13T06:26:28;4.40;94.50
20856;DHT22;63058;49.424;8.420;2023-02-13T06:28:54;4.30;94.30
20856;DHT22;63058;49.424;8.420;2023-02-13T06:31:20;4.40;94.40
20856;DHT22;63058;49.424;8.420;2023-02-13T06:33:45;4.30;94.40
20856;DHT22;63058;49.424;8.420;2023-02-13T06:36:11;4.30;94.30
20856;DHT22;63058;49.424;8.420;2023-02-13T06:38:36;4.30;94.30
20856;DHT22;63058;49.424;8.420;2023-02-13T06:41:02;4.20;94.40
20856;DHT22;63058;49.424;8.420;2023-02-13T06:43:29;4.20;94.60
20856;DHT22;63058;49.424;8.420;2023-02-13T06:45:54;4.20;94.50
20856;DHT22;63058;49.424;8.420;2023-02-13T06:48:20;4.20;94.30
20856;DHT22;63058;49.424;8.420;2023-02-13T06:50:46;4.20;94.30
20856;DHT22;63058;49.424;8.420;2023-02-13T06:53:11;4.20;94.30
20856;DHT22;63058;49.424;8.420;2023-02-13T06:55:37;4.20;94.30
20856;DHT22;63058;49.424;8.420;2023-02-13T06:58:05;4.10;94.30
20856;DHT22;63058;49.424;8.420;2023-02-13T07:00:31;4.10;94.20
20856;DHT22;63058;49.424;8.420;2023-02-13T07:03:04;4.10;94.40
20856;DHT22;63058;49.424;8.420;2023-02-13T07:05:31;4.10;94.70
20856;DHT22;63058;49.424;8.420;2023-02-13T07:07:57;4.10;94.80
20856;DHT22;63058;49.424;8.420;2023-02-13T07:10:22;4.20;94.90
20856;DHT22;63058;49.424;8.420;2023-02-13T07:12:48;4.20;95.00
20856;DHT22;63058;49.424;8.420;2023-02-13T07:15:14;4.20;94.90
20856;DHT22;63058;49.424;8.420;2023-02-13T07:17:40;4.20;94.90
20856;DHT22;63058;49.424;8.420;2023-02-13T07:20:06;4.30;95.00
20856;DHT22;63058;49.424;8.420;2023-02-13T07:22:32;4.30;95.10
20856;DHT22;63058;49.424;8.420;2023-02-13T07:24:59;4.40;95.20
20856;DHT22;63058;49.424;8.420;2023-02-13T07:27:25;4.40;95.30
20856;DHT22;63058;49.424;8.420;2023-02-13T07:29:54;4.50;95.30
20856;DHT22;63058;49.424;8.420;2023-02-13T07:32:20;4.50;95.40
20856;DHT22;63058;49.424;8.420;2023-02-13T07:34:45;4.60;95.30
20856;DHT22;63058;49.424;8.420;2023-02-13T07:37:11;4.70;95.40
20856;DHT22;63058;49.424;8.420;2023-02-13T07:39:36;4.60;95.50
20856;DHT22;63058;49.424;8.420;2023-02-13T07:42:04;4.70;95.60
20856;DHT22;63058;49.424;8.420;2023-02-13T07:44:30;4.80;95.70
20856;DHT22;63058;49.424;8.420;2023-02-13T07:46:55;4.90;95.80
20856;DHT22;63058;49.424;8.420;2023-02-13T07:49:21;4.90;95.80
20856;DHT22;63058;49.424;8.420;2023-02-13T07:51:46;5.00;95.70
20856;DHT22;63058;49.424;8.420;2023-02-13T07:54:12;5.00;95.60
20856;DHT22;63058;49.424;8.420;2023-02-13T07:56:37;5.00;95.60
20856;DHT22;63058;49.424;8.420;2023-02-13T07:59:06;5.20;95.60
20856;DHT22;63058;49.424;8.420;2023-02-13T08:01:33;5.30;95.60
20856;DHT22;63058;49.424;8.420;2023-02-13T08:04:00;5.30;95.70
20856;DHT22;63058;49.424;8.420;2023-02-13T08:06:26;5.30;95.70
20856;DHT22;63058;49.424;8.420;2023-02-13T08:08:52;5.40;95.90
20856;DHT22;63058;49.424;8.420;2023-02-13T08:11:39;5.50;96.10
20856;DHT22;63058;49.424;8.420;2023-02-13T08:14:24;5.60;96.20
20856;DHT22;63058;49.424;8.420;2023-02-13T08:16:51;5.50;96.50
20856;DHT22;63058;49.424;8.420;2023-02-13T08:19:17;5.80;96.30
20856;DHT22;63058;49.424;8.420;2023-02-13T08:21:45;5.80;96.30
20856;DHT22;63058;49.424;8.420;2023-02-13T08:24:11;5.90;96.10
20856;DHT22;63058;49.424;8.420;2023-02-13T08:26:37;6.00;96.00
20856;DHT22;63058;49.424;8.420;2023-02-13T08:29:03;6.00;95.90
20856;DHT22;63058;49.424;8.420;2023-02-13T08:31:30;6.00;96.00
20856;DHT22;63058;49.424;8.420;2023-02-13T08:33:56;6.00;96.10
20856;DHT22;63058;49.424;8.420;2023-02-13T08:36:22;6.10;96.30
20856;DHT22;63058;49.424;8.420;2023-02-13T08:38:48;6.20;96.40
20856;DHT22;63058;49.424;8.420;2023-02-13T08:41:14;6.30;96.50
20856;DHT22;63058;49.424;8.420;2023-02-13T08:43:43;6.40;96.60
20856;DHT22;63058;49.424;8.420;2023-02-13T08:46:09;6.50;96.60
20856;DHT22;63058;49.424;8.420;2023-02-13T08:48:36;6.60;96.60
20856;DHT22;63058;49.424;8.420;2023-02-13T08:51:13;6.70;96.60
20856;DHT22;63058;49.424;8.420;2023-02-13T08:53:38;6.70;96.60
20856;DHT22;63058;49.424;8.420;2023-02-13T08:56:05;6.80;96.60
20856;DHT22;63058;49.424;8.420;2023-02-13T08:58:31;6.90;96.70
20856;DHT22;63058;49.424;8.420;2023-02-13T09:00:57;6.90;96.60
20856;DHT22;63058;49.424;8.420;2023-02-13T09:03:23;7.00;96.60
20856;DHT22;63058;49.424;8.420;2023-02-13T09:05:49;7.00;96.50
20856;DHT22;63058;49.424;8.420;2023-02-13T09:08:15;7.10;96.60
20856;DHT22;63058;49.424;8.420;2023-02-13T09:10:41;7.10;96.60
20856;DHT22;63058;49.424;8.420;2023-02-13T09:13:10;7.10;96.70
20856;DHT22;63058;49.424;8.420;2023-02-13T09:15:39;7.10;96.80
20856;DHT22;63058;49.424;8.420;2023-02-13T09:18:05;7.20;96.90
20856;DHT22;63058;49.424;8.420;2023-02-13T09:20:30;7.20;97.00
20856;DHT22;63058;49.424;8.420;2023-02-13T09:22:56;7.30;97.10
20856;DHT22;63058;49.424;8.420;2023-02-13T09:25:22;7.40;97.20
20856;DHT22;63058;49.424;8.420;2023-02-13T09:27:47;7.40;97.30
20856;DHT22;63058;49.424;8.420;2023-02-13T09:30:13;7.50;97.50
20856;DHT22;63058;49.424;8.420;2023-02-13T09:32:47;7.60;97.40
20856;DHT22;63058;49.424;8.420;2023-02-13T09:35:13;7.70;97.30
20856;DHT22;63058;49.424;8.420;2023-02-13T09:37:39;7.80;97.30
20856;DHT22;63058;49.424;8.420;2023-02-13T09:40:13;7.80;97.30
20856;DHT22;63058;49.424;8.420;2023-02-13T09:42:40;7.90;97.30
20856;DHT22;63058;49.424;8.420;2023-02-13T09:45:07;8.00;97.20
20856;DHT22;63058;49.424;8.420;2023-02-13T09:47:38;8.10;97.20
20856;DHT22;63058;49.424;8.420;2023-02-13T09:50:17;8.10;97.10
20856;DHT22;63058;49.424;8.420;2023-02-13T09:52:48;8.20;96.90
20856;DHT22;63058;49.424;8.420;2023-02-13T09:55:28;8.20;96.90
20856;DHT22;63058;49.424;8.420;2023-02-13T10:00:31;8.30;96.90
20856;DHT22;63058;49.424;8.420;2023-02-13T10:03:25;8.30;96.90
20856;DHT22;63058;49.424;8.420;2023-02-13T10:13:55;8.40;97.60
20856;DHT22;63058;49.424;8.420;2023-02-13T10:17:00;8.50;97.70
20856;DHT22;63058;49.424;8.420;2023-02-13T10:19:49;8.70;98.20
20856;DHT22;63058;49.424;8.420;2023-02-13T10:22:18;8.90;98.90
20856;DHT22;63058;49.424;8.420;2023-02-13T10:27:24;9.80;99.70
20856;DHT22;63058;49.424;8.420;2023-02-13T10:29:59;10.20;99.10
20856;DHT22;63058;49.424;8.420;2023-02-13T10:38:22;11.80;98.70
20856;DHT22;63058;49.424;8.420;2023-02-13T11:00:36;14.90;95.10
20856;DHT22;63058;49.424;8.420;2023-02-13T11:03:03;15.10;95.00
20856;DHT22;63058;49.424;8.420;2023-02-13T11:05:36;15.40;95.80
20856;DHT22;63058;49.424;8.420;2023-02-13T11:08:03;15.60;94.80
20856;DHT22;63058;49.424;8.420;2023-02-13T11:10:34;15.90;94.90
20856;DHT22;63058;49.424;8.420;2023-02-13T11:13:17;16.00;94.80
20856;DHT22;63058;49.424;8.420;2023-02-13T11:15:59;16.30;93.40
20856;DHT22;63058;49.424;8.420;2023-02-13T11:18:28;16.50;94.40
20856;DHT22;63058;49.424;8.420;2023-02-13T11:23:58;17.10;93.70
20856;DHT22;63058;49.424;8.420;2023-02-13T11:26:34;17.40;94.50
20856;DHT22;63058;49.424;8.420;2023-02-13T11:29:05;17.60;92.90
20856;DHT22;63058;49.424;8.420;2023-02-13T11:31:40;17.80;92.90
20856;DHT22;63058;49.424;8.420;2023-02-13T11:34:26;18.10;93.30
20856;DHT22;63058;49.424;8.420;2023-02-13T11:36:54;18.20;91.70
20856;DHT22;63058;49.424;8.420;2023-02-13T11:39:31;18.50;92.60
20856;DHT22;63058;49.424;8.420;2023-02-13T11:41:57;18.60;92.90
20856;DHT22;63058;49.424;8.420;2023-02-13T11:44:28;18.80;93.00
20856;DHT22;63058;49.424;8.420;2023-02-13T11:46:58;19.00;91.20
20856;DHT22;63058;49.424;8.420;2023-02-13T11:49:29;19.20;91.50
20856;DHT22;63058;49.424;8.420;2023-02-13T11:51:59;19.30;91.40
20856;DHT22;63058;49.424;8.420;2023-02-13T11:57:02;19.70;91.00
20856;DHT22;63058;49.424;8.420;2023-02-13T11:59:40;19.80;90.80
20856;DHT22;63058;49.424;8.420;2023-02-13T12:04:38;20.00;84.80
20856;DHT22;63058;49.424;8.420;2023-02-13T12:07:28;20.00;88.00
20856;DHT22;63058;49.424;8.420;2023-02-13T12:10:14;20.10;85.40
20856;DHT22;63058;49.424;8.420;2023-02-13T12:17:47;20.20;86.80
20856;DHT22;63058;49.424;8.420;2023-02-13T12:20:15;20.30;88.00
20856;DHT22;63058;49.424;8.420;2023-02-13T12:23:00;20.50;87.80
20856;DHT22;63058;49.424;8.420;2023-02-13T12:34:24;21.10;81.20
20856;DHT22;63058;49.424;8.420;2023-02-13T12:37:04;21.20;80.00
20856;DHT22;63058;49.424;8.420;2023-02-13T12:39:41;21.30;83.00
20856;DHT22;63058;49.424;8.420;2023-02-13T12:51:20;22.40;82.80
20856;DHT22;63058;49.424;8.420;2023-02-13T12:56:24;22.90;77.60
20856;DHT22;63058;49.424;8.420;2023-02-13T12:59:01;23.00;77.10
20856;DHT22;63058;49.424;8.420;2023-02-13T13:07:19;23.00;74.30
20856;DHT22;63058;49.424;8.420;2023-02-13T13:15:51;22.80;73.00
20856;DHT22;63058;49.424;8.420;2023-02-13T13:18:35;22.80;74.90
20856;DHT22;63058;49.424;8.420;2023-02-13T13:24:23;22.90;76.00
20856;DHT22;63058;49.424;8.420;2023-02-13T13:26:51;22.90;75.20
20856;DHT22;63058;49.424;8.420;2023-02-13T13:29:44;23.00;77.10
20856;DHT22;63058;49.424;8.420;2023-02-13T13:32:16;23.10;73.70
20856;DHT22;63058;49.424;8.420;2023-02-13T13:34:44;23.30;75.10
20856;DHT22;63058;49.424;8.420;2023-02-13T13:37:25;23.50;77.70
20856;DHT22;63058;49.424;8.420;2023-02-13T13:40:32;23.70;75.30
20856;DHT22;63058;49.424;8.420;2023-02-13T13:43:09;23.90;77.30
20856;DHT22;63058;49.424;8.420;2023-02-13T13:45:40;24.20;77.10
20856;DHT22;63058;49.424;8.420;2023-02-13T13:48:33;24.50;80.10
20856;DHT22;63058;49.424;8.420;2023-02-13T13:51:03;24.70;76.40
20856;DHT22;63058;49.424;8.420;2023-02-13T13:53:29;24.80;77.80
20856;DHT22;63058;49.424;8.420;2023-02-13T14:03:40;25.30;73.40
20856;DHT22;63058;49.424;8.420;2023-02-13T14:06:08;25.50;77.30
20856;DHT22;63058;49.424;8.420;2023-02-13T14:13:39;25.60;73.00
20856;DHT22;63058;49.424;8.420;2023-02-13T14:16:41;25.60;69.90
20856;DHT22;63058;49.424;8.420;2023-02-13T14:19:33;25.50;70.10
20856;DHT22;63058;49.424;8.420;2023-02-13T14:24:55;25.50;68.60
20856;DHT22;63058;49.424;8.420;2023-02-13T14:27:31;25.50;69.80
20856;DHT22;63058;49.424;8.420;2023-02-13T14:29:59;25.60;70.70
20856;DHT22;63058;49.424;8.420;2023-02-13T14:32:35;25.70;74.10
20856;DHT22;63058;49.424;8.420;2023-02-13T14:35:15;25.80;73.30
20856;DHT22;63058;49.424;8.420;2023-02-13T14:37:50;26.00;75.50
20856;DHT22;63058;49.424;8.420;2023-02-13T14:42:45;26.40;73.30
20856;DHT22;63058;49.424;8.420;2023-02-13T14:45:17;26.40;72.90
20856;DHT22;63058;49.424;8.420;2023-02-13T14:47:50;26.50;71.90
20856;DHT22;63058;49.424;8.420;2023-02-13T14:50:27;26.60;70.50
20856;DHT22;63058;49.424;8.420;2023-02-13T14:52:54;26.60;68.40
20856;DHT22;63058;49.424;8.420;2023-02-13T14:55:34;26.70;72.90
20856;DHT22;63058;49.424;8.420;2023-02-13T14:58:11;26.70;67.60
20856;DHT22;63058;49.424;8.420;2023-02-13T15:00:43;26.70;67.70
20856;DHT22;63058;49.424;8.420;2023-02-13T15:06:13;26.80;69.20
20856;DHT22;63058;49.424;8.420;2023-02-13T15:08:51;26.70;68.70
20856;DHT22;63058;49.424;8.420;2023-02-13T15:11:38;26.60;66.40
20856;DHT22;63058;49.424;8.420;2023-02-13T15:14:30;26.40;65.30
20856;DHT22;63058;49.424;8.420;2023-02-13T15:17:06;26.20;65.90
20856;DHT22;63058;49.424;8.420;2023-02-13T15:19:36;25.90;67.50
20856;DHT22;63058;49.424;8.420;2023-02-13T15:22:04;25.80;69.30
20856;DHT22;63058;49.424;8.420;2023-02-13T15:24:50;25.60;69.90
20856;DHT22;63058;49.424;8.420;2023-02-13T15:27:19;25.60;67.50
20856;DHT22;63058;49.424;8.420;2023-02-13T15:30:03;25.60;70.00
20856;DHT22;63058;49.424;8.420;2023-02-13T15:32:34;25.50;66.10
20856;DHT22;63058;49.424;8.420;2023-02-13T15:35:09;25.60;68.70
20856;DHT22;63058;49.424;8.420;2023-02-13T15:37:34;25.50;69.60
20856;DHT22;63058;49.424;8.420;2023-02-13T15:40:24;25.40;68.80
20856;DHT22;63058;49.424;8.420;2023-02-13T15:42:51;25.40;64.70
20856;DHT22;63058;49.424;8.420;2023-02-13T15:45:18;25.40;68.30
20856;DHT22;63058;49.424;8.420;2023-02-13T15:47:45;25.30;67.50
20856;DHT22;63058;49.424;8.420;2023-02-13T15:50:32;25.20;67.30
20856;DHT22;63058;49.424;8.420;2023-02-13T15:52:59;25.20;64.20
20856;DHT22;63058;49.424;8.420;2023-02-13T15:55:30;25.10;66.60
20856;DHT22;63058;49.424;8.420;2023-02-13T15:57:58;25.00;66.10
20856;DHT22;63058;49.424;8.420;2023-02-13T16:00:33;24.90;65.30
20856;DHT22;63058;49.424;8.420;2023-02-13T16:03:01;24.70;62.00
20856;DHT22;63058;49.424;8.420;2023-02-13T16:05:34;24.30;60.90
20856;DHT22;63058;49.424;8.420;2023-02-13T16:08:01;23.70;59.10
20856;DHT22;63058;49.424;8.420;2023-02-13T16:10:30;23.00;59.40
20856;DHT22;63058;49.424;8.420;2023-02-13T16:12:58;22.30;58.80
20856;DHT22;63058;49.424;8.420;2023-02-13T16:15:27;21.60;58.90
20856;DHT22;63058;49.424;8.420;2023-02-13T16:17:53;20.90;59.00
20856;DHT22;63058;49.424;8.420;2023-02-13T16:20:22;20.10;59.50
20856;DHT22;63058;49.424;8.420;2023-02-13T16:27:54;18.20;60.30
20856;DHT22;63058;49.424;8.420;2023-02-13T16:30:33;17.60;61.30
20856;DHT22;63058;49.424;8.420;2023-02-13T16:38:48;16.20;63.40
20856;DHT22;63058;49.424;8.420;2023-02-13T16:43:53;15.30;64.50
20856;DHT22;63058;49.424;8.420;2023-02-13T16:46:26;14.90;65.00
20856;DHT22;63058;49.424;8.420;2023-02-13T16:51:37;14.20;65.90
20856;DHT22;63058;49.424;8.420;2023-02-13T16:56:41;13.60;66.80
20856;DHT22;63058;49.424;8.420;2023-02-13T16:59:20;13.40;67.20
20856;DHT22;63058;49.424;8.420;2023-02-13T17:01:47;13.10;67.70
20856;DHT22;63058;49.424;8.420;2023-02-13T17:04:22;12.90;68.10
20856;DHT22;63058;49.424;8.420;2023-02-13T17:06:47;12.70;68.40
20856;DHT22;63058;49.424;8.420;2023-02-13T17:09:18;12.50;68.70
20856;DHT22;63058;49.424;8.420;2023-02-13T17:11:49;12.30;69.10
20856;DHT22;63058;49.424;8.420;2023-02-13T17:14:15;12.10;69.60
20856;DHT22;63058;49.424;8.420;2023-02-13T17:16:40;11.90;69.90
20856;DHT22;63058;49.424;8.420;2023-02-13T17:19:06;11.70;70.30
20856;DHT22;63058;49.424;8.420;2023-02-13T17:21:31;11.60;70.80
20856;DHT22;63058;49.424;8.420;2023-02-13T17:23:57;11.50;71.10
20856;DHT22;63058;49.424;8.420;2023-02-13T17:26:23;11.40;71.30
20856;DHT22;63058;49.424;8.420;2023-02-13T17:28:48;11.30;71.50
20856;DHT22;63058;49.424;8.420;2023-02-13T17:31:14;11.20;71.70
20856;DHT22;63058;49.424;8.420;2023-02-13T17:33:39;11.10;72.00
20856;DHT22;63058;49.424;8.420;2023-02-13T17:36:06;11.00;72.30
20856;DHT22;63058;49.424;8.420;2023-02-13T17:38:32;10.90;72.50
20856;DHT22;63058;49.424;8.420;2023-02-13T17:40:57;10.90;72.50
20856;DHT22;63058;49.424;8.420;2023-02-13T17:43:23;10.70;72.50
20856;DHT22;63058;49.424;8.420;2023-02-13T17:45:51;10.60;72.80
20856;DHT22;63058;49.424;8.420;2023-02-13T17:48:16;10.50;73.10
20856;DHT22;63058;49.424;8.420;2023-02-13T17:50:42;10.50;73.40
20856;DHT22;63058;49.424;8.420;2023-02-13T17:53:18;10.40;73.60
20856;DHT22;63058;49.424;8.420;2023-02-13T17:55:45;10.30;73.90
20856;DHT22;63058;49.424;8.420;2023-02-13T17:58:11;10.20;73.80
20856;DHT22;63058;49.424;8.420;2023-02-13T18:00:36;10.20;74.00
20856;DHT22;63058;49.424;8.420;2023-02-13T18:03:02;10.10;74.30
20856;DHT22;63058;49.424;8.420;2023-02-13T18:05:29;10.10;74.40
20856;DHT22;63058;49.424;8.420;2023-02-13T18:07:56;10.00;74.40
20856;DHT22;63058;49.424;8.420;2023-02-13T18:10:24;9.90;74.60
20856;DHT22;63058;49.424;8.420;2023-02-13T18:12:51;9.90;75.00
20856;DHT22;63058;49.424;8.420;2023-02-13T18:15:18;9.80;74.90
20856;DHT22;63058;49.424;8.420;2023-02-13T18:17:44;9.80;75.20
20856;DHT22;63058;49.424;8.420;2023-02-13T18:20:15;9.70;75.20
20856;DHT22;63058;49.424;8.420;2023-02-13T18:22:42;9.60;75.30
20856;DHT22;63058;49.424;8.420;2023-02-13T18:25:08;9.60;75.70
20856;DHT22;63058;49.424;8.420;2023-02-13T18:27:34;9.60;75.80
20856;DHT22;63058;49.424;8.420;2023-02-13T18:29:59;9.50;75.70
20856;DHT22;63058;49.424;8.420;2023-02-13T18:32:25;9.50;76.10
20856;DHT22;63058;49.424;8.420;2023-02-13T18:34:51;9.50;76.10
20856;DHT22;63058;49.424;8.420;2023-02-13T18:37:17;9.40;76.90
20856;DHT22;63058;49.424;8.420;2023-02-13T18:39:43;9.40;76.20
20856;DHT22;63058;49.424;8.420;2023-02-13T18:42:10;9.30;76.40
20856;DHT22;63058;49.424;8.420;2023-02-13T18:44:38;9.30;76.50
20856;DHT22;63058;49.424;8.420;2023-02-13T18:47:04;9.20;76.50